Time;durP1;ratioP1;P1;durP2;ratioP2;P2;SDS_P1;SDS_P2;PMS_P1;PMS_P2;Temp;Humidity;BMP_temperature;BMP_pressure;BME280_temperature;BME280_humidity;BME280_pressure;Samples;Min_cycle;Max_cycle;Signal;HPM_P1;HPM_P2
2022/07/27 00:01:13;;;;;;;1.38;0.50;;;;;;;24.32;40.52;101955.75;5065333;28;20102;-59
2022/07/27 00:03:39;;;;;;;2.53;0.60;;;;;;;24.31;40.67;101954.91;5065077;28;20025;-59
2022/07/27 00:06:05;;;;;;;0.60;0.40;;;;;;;24.31;40.73;101951.34;5065525;28;20036;-59
2022/07/27 00:08:30;;;;;;;0.50;0.50;;;;;;;24.26;40.77;101934.75;5065361;28;20027;-59
2022/07/27 00:10:56;;;;;;;1.15;0.50;;;;;;;24.28;40.65;101947.09;5065178;28;20056;-60
2022/07/27 00:13:21;;;;;;;1.55;0.80;;;;;;;24.28;40.68;101941.66;5065265;28;20084;-60
2022/07/27 00:15:47;;;;;;;1.55;0.90;;;;;;;24.28;40.71;101946.25;5065335;28;20025;-59
2022/07/27 00:18:12;;;;;;;1.45;0.50;;;;;;;24.26;40.77;101946.47;5064803;28;20051;-59
2022/07/27 00:20:38;;;;;;;0.60;0.40;;;;;;;24.25;40.79;101947.47;5063904;28;20079;-60
2022/07/27 00:23:04;;;;;;;1.35;0.40;;;;;;;24.24;40.71;101942.22;5065651;28;20021;-60
2022/07/27 00:25:29;;;;;;;1.35;0.60;;;;;;;24.23;40.73;101944.09;5065178;28;20028;-61
2022/07/27 00:27:57;;;;;;;2.30;0.50;;;;;;;24.23;40.73;101935.94;5065153;28;20090;-60
2022/07/27 00:30:23;;;;;;;2.03;0.57;;;;;;;24.22;41.00;101945.13;5065090;28;20031;-60
2022/07/27 00:32:49;;;;;;;0.80;0.50;;;;;;;24.19;40.98;101949.03;5064835;28;20043;-60
2022/07/27 00:35:15;;;;;;;1.00;0.40;;;;;;;24.19;40.70;101942.75;5065018;28;20033;-59
2022/07/27 00:37:40;;;;;;;1.10;0.47;;;;;;;24.20;40.98;101950.72;5065180;28;20040;-60
2022/07/27 00:40:06;;;;;;;1.33;0.82;;;;;;;24.21;40.89;101948.84;5064896;28;20040;-60
2022/07/27 00:42:32;;;;;;;0.82;0.40;;;;;;;24.19;41.09;101938.16;5064689;28;20565;-59
2022/07/27 00:44:57;;;;;;;1.65;0.40;;;;;;;24.19;40.88;101940.03;5064671;28;20033;-59
2022/07/27 00:47:23;;;;;;;1.75;0.52;;;;;;;24.15;40.98;101941.41;5065090;28;20029;-59
2022/07/27 00:49:48;;;;;;;1.38;0.40;;;;;;;24.17;40.99;101945.66;5064483;28;20752;-57
2022/07/27 00:52:14;;;;;;;1.65;0.75;;;;;;;24.17;40.75;101942.06;5081068;28;20031;-58
2022/07/27 00:54:41;;;;;;;1.70;0.50;;;;;;;24.17;40.93;101942.06;5084830;28;20024;-60
2022/07/27 00:57:09;;;;;;;0.45;0.30;;;;;;;24.16;40.91;101943.94;5085052;28;20028;-60
2022/07/27 00:59:35;;;;;;;1.75;0.70;;;;;;;24.16;41.06;101951.25;5086941;28;20055;-60
2022/07/27 01:02:00;;;;;;;1.60;0.50;;;;;;;24.14;40.78;101943.28;5080203;28;20028;-60
2022/07/27 01:04:26;;;;;;;0.70;0.30;;;;;;;24.15;40.92;101949.56;5080414;28;20485;-59
2022/07/27 01:06:51;;;;;;;2.33;0.50;;;;;;;24.14;40.94;101950.59;5078963;28;20035;-59
2022/07/27 01:12:00;;;;;;;0.93;0.50;;;;;;;24.03;40.93;101923.81;5085848;28;20051;-60
2022/07/27 01:14:26;;;;;;;0.80;0.50;;;;;;;24.12;40.82;101944.47;5088656;28;20024;-58
2022/07/27 01:16:51;;;;;;;1.75;0.65;;;;;;;24.11;41.03;101940.06;5088820;28;20028;-59
2022/07/27 01:19:17;;;;;;;0.98;0.45;;;;;;;24.12;41.01;101939.88;5081362;28;20390;-59
2022/07/27 01:21:42;;;;;;;0.80;0.30;;;;;;;24.06;41.21;101935.19;5068091;28;20040;-59
2022/07/27 01:24:08;;;;;;;0.57;0.35;;;;;;;24.09;41.14;101943.00;5068269;28;20064;-58
2022/07/27 01:26:35;;;;;;;2.53;0.82;;;;;;;24.09;41.07;101943.00;5068172;28;20052;-59
2022/07/27 01:29:01;;;;;;;1.42;0.57;;;;;;;24.08;41.11;101943.16;5067060;28;20406;-60
2022/07/27 01:31:27;;;;;;;1.35;0.40;;;;;;;24.08;41.10;101946.69;5068306;28;20080;-60
2022/07/27 01:33:52;;;;;;;0.77;0.40;;;;;;;24.06;41.17;101939.78;5067750;28;20122;-60
2022/07/27 01:36:18;;;;;;;1.45;0.65;;;;;;;24.08;41.10;101946.69;5074758;28;20028;-60
2022/07/27 01:38:43;;;;;;;0.90;0.50;;;;;;;24.04;40.95;101941.81;5087979;28;20020;-59
2022/07/27 01:41:08;;;;;;;1.20;0.40;;;;;;;24.07;41.00;101949.59;5087918;28;20092;-59
2022/07/27 01:43:34;;;;;;;1.98;0.60;;;;;;;24.07;41.14;101944.19;5087740;28;20055;-59
2022/07/27 01:45:59;;;;;;;1.55;0.40;;;;;;;24.06;41.11;101940.63;5087951;28;20036;-59
2022/07/27 01:48:25;;;;;;;1.85;0.65;;;;;;;23.98;41.10;101927.06;5087689;28;20036;-60
2022/07/27 01:50:51;;;;;;;1.08;0.63;;;;;;;24.05;41.12;101935.38;5087614;28;20028;-59
2022/07/27 01:53:17;;;;;;;1.88;0.50;;;;;;;24.04;41.13;101939.94;5088042;28;20122;-60
2022/07/27 01:55:42;;;;;;;1.92;0.57;;;;;;;24.04;41.16;101934.50;5087735;28;20024;-59
2022/07/27 01:58:08;;;;;;;1.23;0.50;;;;;;;24.04;41.21;101939.94;5087925;28;20029;-59
2022/07/27 02:00:34;;;;;;;1.42;0.70;;;;;;;24.03;41.46;101942.84;5086156;28;20024;-59
2022/07/27 02:02:59;;;;;;;1.33;0.50;;;;;;;24.03;41.31;101943.69;5087539;28;20036;-59
2022/07/27 02:05:25;;;;;;;1.10;0.50;;;;;;;24.02;41.35;101938.44;5087794;28;20044;-57
2022/07/27 02:07:50;;;;;;;1.30;0.50;;;;;;;23.99;41.22;101927.91;5087700;28;20021;-60
2022/07/27 02:10:15;;;;;;;0.88;0.40;;;;;;;24.01;41.02;101934.03;5082151;28;20128;-60
2022/07/27 02:12:41;;;;;;;0.70;0.70;;;;;;;24.01;41.21;101934.03;5066266;28;20024;-59
2022/07/27 02:15:11;;;;;;;1.55;0.60;;;;;;;24.01;41.32;101932.16;5069345;28;20029;-58
2022/07/27 02:17:37;;;;;;;1.58;0.82;;;;;;;23.91;41.19;101917.94;5073000;28;20127;-60
2022/07/27 02:20:03;;;;;;;1.85;0.57;;;;;;;23.98;41.27;101924.34;5068139;28;20025;-58
2022/07/27 02:22:29;;;;;;;1.13;0.50;;;;;;;23.99;41.36;101925.19;5070312;28;20048;-60
2022/07/27 02:24:54;;;;;;;1.23;0.50;;;;;;;23.92;41.24;101917.78;5068225;28;20029;-59
2022/07/27 02:27:19;;;;;;;1.42;0.57;;;;;;;23.98;41.21;101931.66;5067478;28;20040;-59
2022/07/27 02:29:45;;;;;;;1.02;0.40;;;;;;;23.95;41.17;101924.69;5066831;28;20052;-58
2022/07/27 02:32:10;;;;;;;1.73;0.60;;;;;;;23.95;41.33;101930.13;5067525;28;20053;-59
2022/07/27 02:34:35;;;;;;;0.47;0.35;;;;;;;23.95;41.39;101924.69;5066497;28;20033;-60
2022/07/27 02:37:00;;;;;;;1.25;0.65;;;;;;;23.95;41.19;101927.41;5067401;28;20056;-60
2022/07/27 02:39:26;;;;;;;0.73;0.50;;;;;;;23.93;41.38;101924.06;5067158;28;20025;-58
2022/07/27 02:41:51;;;;;;;1.25;1.00;;;;;;;23.92;41.49;101925.91;5066750;28;20044;-59
2022/07/27 02:44:17;;;;;;;3.13;0.50;;;;;;;23.92;41.38;101925.91;5066994;28;20513;-59
2022/07/27 02:46:42;;;;;;;2.47;0.52;;;;;;;23.91;41.23;101931.50;5066827;28;20081;-59
2022/07/27 02:49:08;;;;;;;0.90;0.40;;;;;;;23.90;41.60;101918.97;5066313;28;20031;-59
2022/07/27 02:51:33;;;;;;;0.95;0.55;;;;;;;23.90;41.44;101930.66;5066688;28;20025;-61
2022/07/27 02:53:59;;;;;;;1.30;0.50;;;;;;;23.91;41.47;101920.66;5066845;28;20569;-60
2022/07/27 02:56:24;;;;;;;1.77;0.50;;;;;;;23.91;41.48;101931.50;5065465;28;20104;-60
2022/07/27 02:58:50;;;;;;;1.75;0.73;;;;;;;23.89;41.78;101922.72;5066638;28;20466;-59
2022/07/27 03:01:15;;;;;;;2.63;0.70;;;;;;;23.88;41.36;101924.59;5066566;28;20037;-60
2022/07/27 03:03:40;;;;;;;0.98;0.40;;;;;;;23.88;41.61;101926.47;5066238;28;20021;-60
2022/07/27 03:06:06;;;;;;;1.25;0.40;;;;;;;23.87;41.71;101925.63;5066651;28;20607;-59
2022/07/27 03:08:32;;;;;;;1.02;0.50;;;;;;;23.86;41.78;101918.47;5066323;28;20025;-60
2022/07/27 03:10:57;;;;;;;1.15;0.50;;;;;;;23.86;41.63;101926.63;5076919;28;20024;-60
2022/07/27 03:13:22;;;;;;;1.08;0.50;;;;;;;23.80;41.40;101912.91;5086229;28;20027;-60
2022/07/27 03:15:48;;;;;;;0.70;0.43;;;;;;;23.85;41.74;101927.66;5084843;28;20038;-59
2022/07/27 03:18:13;;;;;;;1.00;0.40;;;;;;;23.84;41.68;101917.81;5086005;28;20076;-60
2022/07/27 03:20:38;;;;;;;1.10;0.43;;;;;;;23.84;41.69;101920.53;5085946;28;20063;-60
2022/07/27 03:23:03;;;;;;;1.38;0.68;;;;;;;23.83;41.57;101921.56;5085539;28;20065;-60
2022/07/27 03:25:29;;;;;;;1.23;0.50;;;;;;;23.83;41.27;101921.56;5086152;28;20016;-60
2022/07/27 03:27:54;;;;;;;1.27;0.52;;;;;;;23.83;41.67;101924.28;5086363;28;20059;-59
2022/07/27 03:30:19;;;;;;;1.23;0.50;;;;;;;23.83;41.74;101921.56;5086035;28;20389;-60
2022/07/27 03:32:45;;;;;;;0.85;0.55;;;;;;;23.82;41.86;101922.56;5086322;28;20028;-59
2022/07/27 03:35:10;;;;;;;1.48;0.60;;;;;;;23.81;41.51;101926.31;5085638;28;20031;-59
2022/07/27 03:37:35;;;;;;;0.93;0.60;;;;;;;23.81;41.65;101923.59;5085846;28;20086;-59
2022/07/27 03:40:01;;;;;;;0.95;0.50;;;;;;;23.81;41.58;101923.59;5085912;28;20036;-60
2022/07/27 03:42:26;;;;;;;1.83;0.60;;;;;;;23.74;41.85;101922.59;5085317;28;20029;-59
2022/07/27 03:44:51;;;;;;;2.00;0.52;;;;;;;23.77;41.95;101932.28;5085495;28;20063;-60
2022/07/27 03:47:17;;;;;;;2.42;0.90;;;;;;;23.73;41.91;101922.78;5086010;28;20017;-59
2022/07/27 03:49:42;;;;;;;1.70;0.63;;;;;;;23.79;41.60;101943.78;5085100;28;20020;-60
2022/07/27 03:52:07;;;;;;;0.63;0.40;;;;;;;23.80;41.71;101949.06;5085660;28;20087;-60
2022/07/27 03:54:33;;;;;;;1.27;0.40;;;;;;;23.78;41.83;101940.22;5084276;28;20025;-60
2022/07/27 03:56:58;;;;;;;1.20;0.55;;;;;;;23.75;41.78;101939.75;5085914;28;20020;-60
2022/07/27 03:59:23;;;;;;;1.35;0.60;;;;;;;23.78;41.78;101956.53;5085498;28;20031;-61
2022/07/27 04:01:49;;;;;;;1.80;0.50;;;;;;;23.77;41.89;101957.56;5085243;28;20123;-60
2022/07/27 04:04:14;;;;;;;1.27;0.75;;;;;;;23.73;41.66;101947.22;5085183;28;20078;-60
2022/07/27 04:06:39;;;;;;;3.15;0.63;;;;;;;23.74;41.85;101936.16;5085260;28;20044;-61
2022/07/27 04:09:04;;;;;;;1.63;0.60;;;;;;;23.74;41.68;101951.63;5085428;28;20029;-59
2022/07/27 04:11:30;;;;;;;2.25;1.33;;;;;;;23.67;41.78;101938.75;5069981;28;20051;-59
2022/07/27 04:13:55;;;;;;;1.27;0.40;;;;;;;23.75;41.90;101946.03;5064967;28;20029;-60
2022/07/27 04:16:20;;;;;;;0.82;0.43;;;;;;;23.75;41.62;101951.47;5065273;28;20021;-59
2022/07/27 04:18:45;;;;;;;1.30;0.40;;;;;;;23.75;41.74;101954.19;5064594;28;20033;-60
2022/07/27 04:21:12;;;;;;;1.88;0.60;;;;;;;23.73;41.85;101956.22;5065086;28;20025;-59
2022/07/27 04:23:37;;;;;;;0.40;0.40;;;;;;;23.74;41.70;101957.06;5065475;28;20025;-60
2022/07/27 04:26:02;;;;;;;1.00;0.50;;;;;;;23.72;41.70;101957.25;5065263;28;20025;-60
2022/07/27 04:28:28;;;;;;;1.40;0.55;;;;;;;23.73;42.23;101955.38;5065079;28;20036;-59
2022/07/27 04:30:53;;;;;;;1.17;0.50;;;;;;;23.72;41.79;101949.09;5064688;28;20024;-59
2022/07/27 04:33:18;;;;;;;1.33;0.50;;;;;;;23.71;41.82;101958.25;5064810;28;20434;-59
2022/07/27 04:35:43;;;;;;;0.75;0.40;;;;;;;23.71;42.00;101965.56;5064984;28;20077;-60
2022/07/27 04:38:09;;;;;;;1.52;0.50;;;;;;;23.62;41.80;101954.69;5065183;28;20043;-60
2022/07/27 04:40:34;;;;;;;0.75;0.50;;;;;;;23.70;42.29;101964.69;5064868;28;20029;-59
2022/07/27 04:43:01;;;;;;;1.45;0.50;;;;;;;23.69;42.04;101963.84;5064962;28;20123;-60
2022/07/27 04:45:27;;;;;;;1.40;0.80;;;;;;;23.69;41.94;101966.56;5064904;28;20033;-58
2022/07/27 04:47:52;;;;;;;1.33;0.50;;;;;;;23.68;42.12;101969.47;5065090;28;20025;-60
2022/07/27 04:50:17;;;;;;;1.00;0.47;;;;;;;23.68;41.78;101969.47;5064330;28;20052;-60
2022/07/27 04:52:43;;;;;;;0.95;0.60;;;;;;;23.68;42.00;101975.75;5065057;28;20025;-59
2022/07/27 04:55:08;;;;;;;1.02;0.40;;;;;;;23.69;41.95;101974.72;5065064;28;20537;-59
2022/07/27 04:57:34;;;;;;;1.15;0.40;;;;;;;23.68;42.06;101967.59;5066550;28;20474;-60
2022/07/27 04:59:59;;;;;;;1.02;0.60;;;;;;;23.69;42.19;101976.59;5083047;28;20032;-60
2022/07/27 05:02:27;;;;;;;0.80;0.40;;;;;;;23.68;41.99;101969.47;5072813;28;20021;-60
2022/07/27 05:04:52;;;;;;;0.55;0.45;;;;;;;23.69;42.14;101979.31;5064080;28;20025;-59
2022/07/27 05:07:17;;;;;;;1.15;0.50;;;;;;;23.67;41.88;101982.19;5056114;28;20085;-59
2022/07/27 05:09:43;;;;;;;1.35;1.00;;;;;;;23.66;41.92;101972.38;5044479;28;20037;-59
2022/07/27 05:12:08;;;;;;;0.73;0.55;;;;;;;23.65;41.91;101967.09;5044329;28;20036;-59
2022/07/27 05:14:34;;;;;;;0.40;0.38;;;;;;;23.67;42.33;101984.91;5058123;28;20024;-60
2022/07/27 05:16:59;;;;;;;2.15;0.90;;;;;;;23.66;42.26;101983.22;5084783;28;20020;-60
2022/07/27 05:19:24;;;;;;;0.90;0.50;;;;;;;23.66;41.98;101985.94;5084419;28;20029;-59
2022/07/27 05:21:49;;;;;;;1.70;0.70;;;;;;;23.67;42.10;101982.19;5084286;28;20024;-59
2022/07/27 05:24:15;;;;;;;1.55;0.70;;;;;;;23.66;42.08;101985.94;5084754;28;20048;-59
2022/07/27 05:26:40;;;;;;;0.82;0.50;;;;;;;23.64;42.11;101993.38;5084561;28;20047;-60
2022/07/27 05:29:05;;;;;;;1.02;0.40;;;;;;;23.67;42.33;102000.38;5084482;28;20115;-60
2022/07/27 05:31:30;;;;;;;3.80;0.60;;;;;;;23.67;41.84;101994.94;5078499;28;20028;-60
2022/07/27 05:33:56;;;;;;;1.40;0.55;;;;;;;23.66;42.21;101998.66;5064150;28;20029;-60
2022/07/27 05:36:21;;;;;;;1.05;0.60;;;;;;;23.66;42.15;101994.09;5064519;28;20113;-60
2022/07/27 05:38:46;;;;;;;1.40;0.50;;;;;;;23.66;42.02;101998.66;5064227;28;20036;-61
2022/07/27 05:41:11;;;;;;;2.30;0.50;;;;;;;23.65;41.85;101996.97;5064461;28;20032;-60
2022/07/27 05:43:37;;;;;;;2.78;0.50;;;;;;;23.65;42.21;102011.38;5064078;28;20525;-60
2022/07/27 05:46:02;;;;;;;1.17;0.47;;;;;;;23.64;42.09;102006.09;5065820;28;20032;-60
2022/07/27 05:48:27;;;;;;;0.95;0.50;;;;;;;23.65;41.93;102015.97;5067501;28;20035;-60
2022/07/27 05:50:52;;;;;;;1.20;0.40;;;;;;;23.65;42.10;102016.81;5067716;28;20055;-60
2022/07/27 05:53:18;;;;;;;1.17;0.50;;;;;;;23.59;41.97;102005.78;5067776;28;20078;-60
2022/07/27 05:55:43;;;;;;;1.50;0.60;;;;;;;23.65;42.14;102018.69;5067620;28;20108;-60
2022/07/27 05:58:08;;;;;;;2.42;0.70;;;;;;;23.60;41.96;102011.03;5067689;28;20359;-60
2022/07/27 06:00:34;;;;;;;1.45;0.57;;;;;;;23.65;42.17;102022.25;5067628;28;20029;-59
2022/07/27 06:02:59;;;;;;;1.33;0.40;;;;;;;23.64;42.02;102023.22;5068059;28;20084;-59
2022/07/27 06:05:25;;;;;;;0.85;0.60;;;;;;;23.65;41.94;102022.25;5071204;28;20516;-59
2022/07/27 06:08:00;;;;;;;1.83;0.47;;;;;;;23.65;41.91;102024.09;5087325;28;20024;-60
2022/07/27 06:10:27;;;;;;;0.88;0.40;;;;;;;23.62;41.98;102024.44;5087481;28;20044;-59
2022/07/27 06:12:52;;;;;;;1.75;0.65;;;;;;;23.65;42.21;102024.97;5087525;28;20025;-60
2022/07/27 06:15:18;;;;;;;1.15;0.52;;;;;;;23.63;41.91;102020.72;5087579;28;20026;-60
2022/07/27 06:17:45;;;;;;;3.50;0.80;;;;;;;23.45;41.92;101989.19;5087606;28;20116;-60
2022/07/27 06:20:11;;;;;;;1.25;0.60;;;;;;;23.64;42.01;102025.94;5087160;28;20151;-60
2022/07/27 06:22:51;;;;;;;1.55;0.60;;;;;;;23.65;42.01;102030.38;5087408;28;20028;-59
2022/07/27 06:25:17;;;;;;;1.27;0.40;;;;;;;23.63;42.17;102018.84;5087317;28;20028;-59
2022/07/27 06:27:43;;;;;;;1.88;0.63;;;;;;;23.63;42.17;102020.72;5087237;28;20086;-59
2022/07/27 06:30:10;;;;;;;2.67;0.50;;;;;;;23.64;42.02;102023.22;5087265;28;20359;-60
2022/07/27 06:32:35;;;;;;;1.25;0.55;;;;;;;23.62;42.15;102030.72;5087220;28;20032;-60
2022/07/27 06:35:01;;;;;;;1.13;0.40;;;;;;;23.61;42.10;102028.16;5086919;28;20035;-59
2022/07/27 06:37:28;;;;;;;1.52;0.57;;;;;;;23.60;42.15;102021.88;5087199;28;20012;-60
2022/07/27 06:39:54;;;;;;;0.50;0.30;;;;;;;23.62;42.09;102025.28;5086956;28;20024;-59
2022/07/27 06:42:19;;;;;;;0.98;0.40;;;;;;;23.61;42.12;102033.59;5086734;28;20035;-59
2022/07/27 06:44:44;;;;;;;1.17;0.50;;;;;;;23.62;42.04;102025.28;5087011;28;20033;-60
2022/07/27 06:47:09;;;;;;;2.55;0.68;;;;;;;23.60;42.00;102030.03;5086756;28;20025;-59
2022/07/27 06:49:35;;;;;;;2.40;0.88;;;;;;;23.61;41.88;102028.16;5086705;28;20025;-60
2022/07/27 06:52:00;;;;;;;0.80;0.70;;;;;;;23.60;41.94;102027.31;5086846;28;20094;-60
2022/07/27 06:54:25;;;;;;;1.92;0.50;;;;;;;23.58;41.65;102026.66;5086988;28;20051;-61
2022/07/27 06:56:50;;;;;;;2.28;0.70;;;;;;;23.59;41.80;102025.63;5085542;28;20031;-59
2022/07/27 06:59:16;;;;;;;1.30;0.47;;;;;;;23.58;41.77;102026.66;5086750;28;20145;-60
2022/07/27 07:01:42;;;;;;;1.17;0.45;;;;;;;23.58;41.79;102032.09;5086111;28;20025;-60
2022/07/27 07:04:07;;;;;;;1.23;0.40;;;;;;;23.58;41.69;102032.09;5086416;28;20062;-60
2022/07/27 07:06:33;;;;;;;2.38;0.98;;;;;;;23.59;41.66;102030.22;5073153;28;20025;-60
2022/07/27 07:08:59;;;;;;;0.95;0.40;;;;;;;23.59;41.50;102035.66;5066553;28;20032;-60
2022/07/27 07:11:24;;;;;;;5.10;0.70;;;;;;;23.59;41.46;102036.50;5066282;28;20028;-59
2022/07/27 07:13:49;;;;;;;1.85;0.50;;;;;;;23.58;41.56;102033.97;5065973;28;20025;-61
2022/07/27 07:16:15;;;;;;;2.00;0.55;;;;;;;23.59;41.63;102031.06;5066244;28;20021;-60
2022/07/27 07:18:40;;;;;;;1.58;0.60;;;;;;;23.55;41.66;102021.56;5065917;28;20031;-60
2022/07/27 07:21:05;;;;;;;1.23;0.60;;;;;;;23.54;41.53;102021.75;5066223;28;20036;-60
2022/07/27 07:23:30;;;;;;;2.28;0.55;;;;;;;23.59;41.48;102028.34;5066460;28;20035;-60
2022/07/27 07:25:56;;;;;;;1.83;0.60;;;;;;;23.58;41.70;102037.50;5066096;28;20028;-60
2022/07/27 07:28:21;;;;;;;1.23;0.60;;;;;;;23.57;41.63;102030.38;5066213;28;20031;-60
2022/07/27 07:30:47;;;;;;;2.45;0.80;;;;;;;23.51;41.44;102022.94;5064726;28;20079;-60
2022/07/27 07:33:13;;;;;;;1.45;0.70;;;;;;;23.40;41.65;102009.69;5066033;28;20032;-59
2022/07/27 07:35:38;;;;;;;0.88;0.50;;;;;;;23.58;41.22;102034.81;5065708;28;20080;-60
2022/07/27 07:38:03;;;;;;;1.52;0.60;;;;;;;23.57;41.29;102035.78;5066031;28;20025;-60
2022/07/27 07:40:29;;;;;;;1.35;0.50;;;;;;;23.60;41.70;102040.03;5065673;28;20082;-60
2022/07/27 07:43:01;;;;;;;1.58;0.80;;;;;;;23.52;41.12;102032.75;5065525;28;20049;-60
2022/07/27 07:45:29;;;;;;;1.23;0.55;;;;;;;23.58;41.12;102037.50;5065840;28;20088;-60
2022/07/27 07:47:55;;;;;;;2.47;0.70;;;;;;;23.60;41.08;102045.47;5065635;28;20025;-60
2022/07/27 07:50:20;;;;;;;2.60;1.30;;;;;;;23.51;41.11;102024.78;5065270;28;20051;-60
2022/07/27 07:52:50;;;;;;;1.25;0.60;;;;;;;23.59;41.12;102038.34;5065712;28;20092;-60
2022/07/27 07:55:19;;;;;;;3.22;0.82;;;;;;;23.60;40.99;102040.03;5065535;28;20462;-60
2022/07/27 07:57:44;;;;;;;1.92;0.60;;;;;;;23.60;41.06;102037.34;5065757;28;20028;-60
2022/07/27 08:00:10;;;;;;;2.30;0.70;;;;;;;23.58;41.00;102037.50;5065441;28;20085;-60
2022/07/27 08:02:50;;;;;;;1.13;0.50;;;;;;;23.62;40.98;102048.88;5065508;28;20021;-59
2022/07/27 08:05:15;;;;;;;2.47;0.80;;;;;;;23.60;40.95;102043.59;5067440;28;20485;-60
2022/07/27 08:07:42;;;;;;;2.08;0.50;;;;;;;23.62;40.89;102054.31;5085027;28;20033;-59
2022/07/27 08:10:08;;;;;;;2.65;0.68;;;;;;;23.63;40.73;102045.13;5085215;28;20021;-60
2022/07/27 08:12:36;;;;;;;1.27;0.50;;;;;;;23.65;40.89;102053.97;5085256;28;20020;-59
2022/07/27 08:15:01;;;;;;;2.28;0.70;;;;;;;23.58;40.48;102048.38;5085248;28;20017;-60
2022/07/27 08:17:26;;;;;;;3.40;1.33;;;;;;;23.66;40.58;102059.25;5085619;28;20050;-59
2022/07/27 08:19:52;;;;;;;3.65;0.95;;;;;;;23.67;40.57;102050.09;5083642;28;20025;-59
2022/07/27 08:22:17;;;;;;;4.07;1.30;;;;;;;23.68;40.68;102049.06;5083962;28;20063;-59
2022/07/27 08:24:42;;;;;;;1.38;0.60;;;;;;;23.68;40.47;102056.34;5084312;28;20036;-60
2022/07/27 08:27:07;;;;;;;1.75;0.80;;;;;;;23.73;40.66;102055.84;5085247;28;20385;-60
2022/07/27 08:29:33;;;;;;;1.25;0.65;;;;;;;23.69;40.58;102041.75;5085303;28;20127;-60
2022/07/27 08:31:58;;;;;;;2.03;0.70;;;;;;;23.76;40.55;102056.34;5085110;28;20036;-60
2022/07/27 08:34:23;;;;;;;1.40;0.63;;;;;;;23.75;40.23;102054.66;5084776;28;20032;-60
2022/07/27 08:36:48;;;;;;;2.33;0.98;;;;;;;23.78;40.26;102057.00;5085155;28;20020;-60
2022/07/27 08:39:14;;;;;;;1.48;0.60;;;;;;;23.79;40.44;102050.56;5084844;28;20046;-60
2022/07/27 08:41:41;;;;;;;1.42;0.75;;;;;;;23.81;40.24;102062.09;5084754;28;20032;-59
2022/07/27 08:44:07;;;;;;;2.40;0.90;;;;;;;23.82;40.32;102050.19;5083638;28;20060;-60
2022/07/27 08:46:32;;;;;;;1.25;0.50;;;;;;;23.82;40.42;102052.91;5083870;28;20538;-59
2022/07/27 08:49:00;;;;;;;3.72;1.20;;;;;;;23.83;40.42;102048.34;5084477;28;20028;-60
2022/07/27 08:51:26;;;;;;;1.35;0.60;;;;;;;23.84;40.45;102060.91;5084692;28;20032;-60
2022/07/27 08:53:52;;;;;;;0.70;0.60;;;;;;;23.83;40.41;102065.50;5083685;28;20025;-60
2022/07/27 08:56:17;;;;;;;2.35;0.85;;;;;;;23.82;40.16;102071.94;5083660;28;20043;-60
2022/07/27 08:58:43;;;;;;;1.52;0.60;;;;;;;23.82;40.23;102071.94;5085078;28;20033;-59
2022/07/27 09:01:09;;;;;;;2.38;0.65;;;;;;;23.80;40.19;102065.00;5083261;28;20042;-61
2022/07/27 09:03:34;;;;;;;1.80;0.65;;;;;;;23.82;40.04;102063.78;5084845;28;20025;-58
2022/07/27 09:05:59;;;;;;;2.10;1.10;;;;;;;23.82;40.25;102062.94;5076272;28;20025;-59
2022/07/27 09:08:26;;;;;;;1.98;0.80;;;;;;;23.82;40.10;102065.66;5063824;28;20056;-60
2022/07/27 09:10:54;;;;;;;2.33;0.80;;;;;;;23.80;40.05;102051.41;5065004;28;20051;-59
2022/07/27 09:13:25;;;;;;;0.73;0.50;;;;;;;23.83;39.99;102065.50;5065155;28;20040;-59
2022/07/27 09:15:53;;;;;;;0.85;0.63;;;;;;;23.85;39.91;102057.16;5067392;28;20088;-60
2022/07/27 09:18:21;;;;;;;3.30;0.73;;;;;;;23.86;40.00;102062.41;5068661;28;20052;-59
2022/07/27 09:21:09;;;;;;;2.00;1.33;;;;;;;23.87;39.98;102055.09;5070053;28;20036;-59
2022/07/27 09:23:35;;;;;;;1.77;0.77;;;;;;;23.81;40.05;102034.09;5072066;28;20013;-60
2022/07/27 09:26:12;;;;;;;3.08;0.70;;;;;;;23.89;39.97;102051.22;5068116;28;20055;-61
2022/07/27 09:28:37;;;;;;;2.50;0.65;;;;;;;23.90;40.17;102047.47;5068502;28;20021;-60
2022/07/27 09:31:07;;;;;;;1.58;0.70;;;;;;;23.92;40.10;102044.59;5068134;28;20028;-60
2022/07/27 09:33:50;;;;;;;3.95;1.15;;;;;;;23.93;39.92;102055.28;5068333;28;20086;-59
2022/07/27 09:36:17;;;;;;;1.45;0.60;;;;;;;23.92;39.81;102056.31;5068288;28;20025;-60
2022/07/27 09:38:53;;;;;;;2.78;1.00;;;;;;;23.92;39.91;102052.75;5068172;28;20021;-60
2022/07/27 09:41:18;;;;;;;1.70;1.02;;;;;;;23.90;39.77;102061.06;5068174;28;20021;-59
2022/07/27 09:43:49;;;;;;;2.17;0.75;;;;;;;23.90;39.84;102046.63;5067816;28;20048;-59
2022/07/27 09:46:15;;;;;;;3.67;0.60;;;;;;;23.88;39.72;102044.09;5068011;28;20067;-60
2022/07/27 09:48:40;;;;;;;2.30;0.90;;;;;;;23.82;39.84;102035.78;5067795;28;20083;-60
2022/07/27 09:51:08;;;;;;;3.80;1.02;;;;;;;23.88;39.66;102041.38;5067845;28;20078;-60
2022/07/27 09:53:35;;;;;;;1.13;0.60;;;;;;;23.82;39.89;102023.03;5068252;28;20025;-60
2022/07/27 09:56:01;;;;;;;2.65;0.75;;;;;;;23.89;40.44;102039.50;5067849;28;20478;-60
2022/07/27 09:58:46;;;;;;;2.08;0.77;;;;;;;23.92;40.57;102037.28;5067844;28;20033;-59
2022/07/27 10:01:25;;;;;;;2.30;0.68;;;;;;;23.94;40.56;102045.25;5067641;28;20036;-59
2022/07/27 10:03:57;;;;;;;2.50;0.80;;;;;;;23.95;40.55;102038.78;5067588;28;20088;-60
2022/07/27 10:06:23;;;;;;;2.00;0.70;;;;;;;23.90;40.53;102033.88;5079648;28;20028;-59
2022/07/27 10:08:49;;;;;;;1.90;0.55;;;;;;;23.90;40.53;102042.03;5087792;28;20017;-60
2022/07/27 10:11:16;;;;;;;1.88;0.60;;;;;;;23.95;40.55;102055.09;5087582;28;20501;-60
2022/07/27 10:13:41;;;;;;;1.98;0.80;;;;;;;23.94;40.28;102051.53;5087471;28;20555;-60
2022/07/27 10:16:18;;;;;;;1.90;0.80;;;;;;;23.98;40.39;102056.63;5087334;28;20032;-60
2022/07/27 10:18:49;;;;;;;1.35;0.93;;;;;;;23.98;40.24;102060.19;5087225;28;20036;-60
2022/07/27 10:21:15;;;;;;;2.10;0.95;;;;;;;24.00;40.34;102055.44;5086105;28;20024;-60
2022/07/27 10:23:53;;;;;;;1.33;0.63;;;;;;;24.03;40.50;102054.22;5086190;28;20055;-60
2022/07/27 10:26:24;;;;;;;1.90;0.73;;;;;;;24.04;40.32;102047.75;5087276;28;20050;-60
2022/07/27 10:28:52;;;;;;;2.72;0.60;;;;;;;24.05;40.57;102047.59;5087310;28;20084;-59
2022/07/27 10:31:21;;;;;;;2.38;0.73;;;;;;;24.04;40.37;102055.91;5086948;28;20028;-59
2022/07/27 10:33:47;;;;;;;;;;;;;;;24.03;40.34;102057.78;5087303;28;20048;-60
2022/07/27 10:36:15;;;;;;;1.20;0.65;;;;;;;24.03;40.61;102054.22;5087381;28;19932;-61
2022/07/27 10:38:57;;;;;;;1.15;0.50;;;;;;;24.02;40.64;102052.53;5087142;28;20044;-59
2022/07/27 10:41:29;;;;;;;1.88;0.70;;;;;;;24.02;40.63;102050.66;5087056;28;20048;-60
2022/07/27 10:44:13;;;;;;;1.70;0.60;;;;;;;24.03;40.74;102043.34;5086910;28;20108;-59
2022/07/27 10:46:45;;;;;;;3.10;0.80;;;;;;;24.03;40.59;102040.63;5086982;28;20025;-59
2022/07/27 10:49:20;;;;;;;1.33;0.52;;;;;;;24.02;40.40;102041.66;5085303;28;20033;-60
2022/07/27 10:51:46;;;;;;;1.95;0.82;;;;;;;24.03;40.53;102037.91;5086785;28;20035;-61
2022/07/27 10:54:25;;;;;;;1.92;0.70;;;;;;;24.05;40.70;102039.44;5087036;28;20024;-60
2022/07/27 10:56:54;;;;;;;1.08;0.73;;;;;;;24.06;40.63;102034.88;5086850;28;20012;-59
2022/07/27 10:59:38;;;;;;;1.92;0.70;;;;;;;24.02;40.57;102025.38;5086785;28;20051;-59
2022/07/27 11:02:08;;;;;;;2.25;0.65;;;;;;;24.08;40.49;102032.81;5086685;28;20051;-59
2022/07/27 11:04:42;;;;;;;2.30;0.60;;;;;;;24.08;40.35;102040.94;5086098;28;20028;-60
2022/07/27 11:07:08;;;;;;;5.50;0.98;;;;;;;24.05;40.44;102025.88;5068336;28;20036;-59
2022/07/27 11:09:38;;;;;;;1.98;0.88;;;;;;;23.92;40.73;102010.13;5066483;28;20017;-60
2022/07/27 11:12:04;;;;;;;2.13;0.73;;;;;;;24.05;40.31;102028.59;5066260;28;20025;-60
2022/07/27 11:14:29;;;;;;;3.05;0.70;;;;;;;24.05;40.44;102025.03;5066575;28;20033;-59
2022/07/27 11:16:56;;;;;;;1.33;0.70;;;;;;;24.06;40.68;102024.84;5065015;28;20084;-59
2022/07/27 11:19:22;;;;;;;1.08;0.40;;;;;;;24.08;40.75;102027.38;5066069;28;20025;-59
2022/07/27 11:21:48;;;;;;;1.95;0.90;;;;;;;24.09;40.80;102027.22;5066031;28;20108;-59
2022/07/27 11:24:16;;;;;;;0.95;0.45;;;;;;;24.11;40.82;102019.72;5066599;28;20082;-60